sensor_id;sensor_type;location;lat;lon;timestamp;P1;durP1;ratioP1;P2;durP2;ratioP2
13083;SDS011;6608;48.790;9.198;2023-03-03T00:02:08;113.87;;;64.07;;
13083;SDS011;6608;48.790;9.198;2023-03-03T00:04:36;114.57;;;63.63;;
13083;SDS011;6608;48.790;9.198;2023-03-03T00:07:03;115.87;;;64.07;;
13083;SDS011;6608;48.790;9.198;2023-03-03T00:09:30;120.00;;;64.50;;
13083;SDS011;6608;48.790;9.198;2023-03-03T00:11:56;114.73;;;65.00;;
13083;SDS011;6608;48.790;9.198;2023-03-03T00:14:24;109.40;;;63.30;;
13083;SDS011;6608;48.790;9.198;2023-03-03T00:16:53;113.90;;;64.67;;
13083;SDS011;6608;48.790;9.198;2023-03-03T00:19:20;115.57;;;63.97;;
13083;SDS011;6608;48.790;9.198;2023-03-03T00:21:49;111.00;;;63.03;;
13083;SDS011;6608;48.790;9.198;2023-03-03T00:24:17;112.70;;;63.13;;
13083;SDS011;6608;48.790;9.198;2023-03-03T00:26:44;108.07;;;62.50;;
13083;SDS011;6608;48.790;9.198;2023-03-03T00:29:30;113.87;;;64.50;;
13083;SDS011;6608;48.790;9.198;2023-03-03T00:32:07;112.57;;;64.20;;
13083;SDS011;6608;48.790;9.198;2023-03-03T00:34:37;116.13;;;63.67;;
13083;SDS011;6608;48.790;9.198;2023-03-03T00:37:11;112.57;;;64.17;;
13083;SDS011;6608;48.790;9.198;2023-03-03T00:39:45;107.53;;;60.93;;
13083;SDS011;6608;48.790;9.198;2023-03-03T00:42:11;106.10;;;60.87;;
13083;SDS011;6608;48.790;9.198;2023-03-03T00:44:39;112.07;;;62.30;;
13083;SDS011;6608;48.790;9.198;2023-03-03T00:49:50;105.57;;;60.40;;
13083;SDS011;6608;48.790;9.198;2023-03-03T00:52:19;108.00;;;60.93;;
13083;SDS011;6608;48.790;9.198;2023-03-03T00:54:45;109.87;;;62.70;;
13083;SDS011;6608;48.790;9.198;2023-03-03T00:57:12;109.97;;;62.70;;
13083;SDS011;6608;48.790;9.198;2023-03-03T00:59:38;112.50;;;63.07;;
13083;SDS011;6608;48.790;9.198;2023-03-03T01:02:05;112.10;;;64.87;;
13083;SDS011;6608;48.790;9.198;2023-03-03T01:04:32;114.23;;;63.67;;
13083;SDS011;6608;48.790;9.198;2023-03-03T01:06:58;109.10;;;62.83;;
13083;SDS011;6608;48.790;9.198;2023-03-03T01:09:26;114.77;;;64.37;;
13083;SDS011;6608;48.790;9.198;2023-03-03T01:11:52;109.73;;;63.67;;
13083;SDS011;6608;48.790;9.198;2023-03-03T01:14:20;113.33;;;64.43;;
13083;SDS011;6608;48.790;9.198;2023-03-03T01:16:46;120.40;;;65.83;;
13083;SDS011;6608;48.790;9.198;2023-03-03T01:19:14;116.10;;;63.50;;
13083;SDS011;6608;48.790;9.198;2023-03-03T01:21:40;112.13;;;64.07;;
13083;SDS011;6608;48.790;9.198;2023-03-03T01:24:07;115.23;;;65.07;;
13083;SDS011;6608;48.790;9.198;2023-03-03T01:26:34;113.87;;;62.87;;
13083;SDS011;6608;48.790;9.198;2023-03-03T01:29:01;110.20;;;62.80;;
13083;SDS011;6608;48.790;9.198;2023-03-03T01:31:27;113.43;;;63.47;;
13083;SDS011;6608;48.790;9.198;2023-03-03T01:33:53;114.40;;;63.80;;
13083;SDS011;6608;48.790;9.198;2023-03-03T01:36:22;111.97;;;63.43;;
13083;SDS011;6608;48.790;9.198;2023-03-03T01:38:48;112.47;;;62.70;;
13083;SDS011;6608;48.790;9.198;2023-03-03T01:41:15;111.87;;;63.50;;
13083;SDS011;6608;48.790;9.198;2023-03-03T01:43:44;111.07;;;62.90;;
13083;SDS011;6608;48.790;9.198;2023-03-03T01:48:55;111.03;;;63.60;;
13083;SDS011;6608;48.790;9.198;2023-03-03T01:51:27;110.40;;;63.10;;
13083;SDS011;6608;48.790;9.198;2023-03-03T01:53:54;112.37;;;63.47;;
13083;SDS011;6608;48.790;9.198;2023-03-03T01:56:22;105.27;;;62.13;;
13083;SDS011;6608;48.790;9.198;2023-03-03T01:58:51;118.87;;;63.97;;
13083;SDS011;6608;48.790;9.198;2023-03-03T02:01:19;111.70;;;62.57;;
13083;SDS011;6608;48.790;9.198;2023-03-03T02:03:46;109.90;;;62.30;;
13083;SDS011;6608;48.790;9.198;2023-03-03T02:06:14;110.23;;;63.37;;
13083;SDS011;6608;48.790;9.198;2023-03-03T02:08:43;113.40;;;63.23;;
13083;SDS011;6608;48.790;9.198;2023-03-03T02:11:11;112.53;;;63.37;;
13083;SDS011;6608;48.790;9.198;2023-03-03T02:13:38;114.17;;;62.80;;
13083;SDS011;6608;48.790;9.198;2023-03-03T02:16:06;108.03;;;62.60;;
13083;SDS011;6608;48.790;9.198;2023-03-03T02:18:33;112.20;;;63.67;;
13083;SDS011;6608;48.790;9.198;2023-03-03T02:21:01;110.83;;;62.70;;
13083;SDS011;6608;48.790;9.198;2023-03-03T02:23:30;110.07;;;63.17;;
13083;SDS011;6608;48.790;9.198;2023-03-03T02:26:07;107.27;;;62.47;;
13083;SDS011;6608;48.790;9.198;2023-03-03T02:28:35;109.20;;;63.93;;
13083;SDS011;6608;48.790;9.198;2023-03-03T02:31:02;112.37;;;63.33;;
13083;SDS011;6608;48.790;9.198;2023-03-03T02:33:28;113.57;;;64.13;;
13083;SDS011;6608;48.790;9.198;2023-03-03T02:35:54;108.87;;;62.63;;
13083;SDS011;6608;48.790;9.198;2023-03-03T02:38:23;113.53;;;63.63;;
13083;SDS011;6608;48.790;9.198;2023-03-03T02:40:52;109.60;;;63.63;;
13083;SDS011;6608;48.790;9.198;2023-03-03T02:43:23;110.33;;;64.07;;
13083;SDS011;6608;48.790;9.198;2023-03-03T02:45:51;108.80;;;62.37;;
13083;SDS011;6608;48.790;9.198;2023-03-03T02:48:17;104.13;;;62.07;;
13083;SDS011;6608;48.790;9.198;2023-03-03T02:50:44;107.07;;;61.57;;
13083;SDS011;6608;48.790;9.198;2023-03-03T02:53:10;115.10;;;63.27;;
13083;SDS011;6608;48.790;9.198;2023-03-03T02:55:36;104.93;;;62.23;;
13083;SDS011;6608;48.790;9.198;2023-03-03T02:58:03;110.83;;;62.80;;
13083;SDS011;6608;48.790;9.198;2023-03-03T03:00:30;106.13;;;62.70;;
13083;SDS011;6608;48.790;9.198;2023-03-03T03:02:57;114.53;;;62.20;;
13083;SDS011;6608;48.790;9.198;2023-03-03T03:05:24;106.60;;;62.30;;
13083;SDS011;6608;48.790;9.198;2023-03-03T03:07:50;108.20;;;62.23;;
13083;SDS011;6608;48.790;9.198;2023-03-03T03:10:16;108.87;;;63.17;;
13083;SDS011;6608;48.790;9.198;2023-03-03T03:12:43;108.07;;;62.77;;
13083;SDS011;6608;48.790;9.198;2023-03-03T03:15:09;108.57;;;62.97;;
13083;SDS011;6608;48.790;9.198;2023-03-03T03:17:37;112.33;;;63.70;;
13083;SDS011;6608;48.790;9.198;2023-03-03T03:20:04;117.60;;;65.47;;
13083;SDS011;6608;48.790;9.198;2023-03-03T03:22:30;113.30;;;63.80;;
13083;SDS011;6608;48.790;9.198;2023-03-03T03:24:57;114.50;;;63.80;;
13083;SDS011;6608;48.790;9.198;2023-03-03T03:27:23;109.70;;;61.03;;
13083;SDS011;6608;48.790;9.198;2023-03-03T03:29:50;109.80;;;62.17;;
13083;SDS011;6608;48.790;9.198;2023-03-03T03:32:17;106.53;;;62.87;;
13083;SDS011;6608;48.790;9.198;2023-03-03T03:34:44;108.80;;;63.43;;
13083;SDS011;6608;48.790;9.198;2023-03-03T03:37:11;113.53;;;59.60;;
13083;SDS011;6608;48.790;9.198;2023-03-03T03:39:37;110.47;;;62.80;;
13083;SDS011;6608;48.790;9.198;2023-03-03T03:42:04;109.27;;;61.97;;
13083;SDS011;6608;48.790;9.198;2023-03-03T03:44:30;117.53;;;62.90;;
13083;SDS011;6608;48.790;9.198;2023-03-03T03:46:57;112.27;;;64.27;;
13083;SDS011;6608;48.790;9.198;2023-03-03T03:49:23;106.67;;;62.27;;
13083;SDS011;6608;48.790;9.198;2023-03-03T03:51:51;105.47;;;62.73;;
13083;SDS011;6608;48.790;9.198;2023-03-03T03:54:17;105.97;;;61.93;;
13083;SDS011;6608;48.790;9.198;2023-03-03T03:56:43;107.07;;;62.10;;
13083;SDS011;6608;48.790;9.198;2023-03-03T03:59:10;114.47;;;63.73;;
13083;SDS011;6608;48.790;9.198;2023-03-03T04:01:36;107.03;;;61.97;;
13083;SDS011;6608;48.790;9.198;2023-03-03T04:04:03;110.07;;;63.20;;
13083;SDS011;6608;48.790;9.198;2023-03-03T04:06:29;109.67;;;62.57;;
13083;SDS011;6608;48.790;9.198;2023-03-03T04:08:57;111.73;;;62.43;;
13083;SDS011;6608;48.790;9.198;2023-03-03T04:11:23;112.97;;;63.37;;
13083;SDS011;6608;48.790;9.198;2023-03-03T04:13:50;112.57;;;64.40;;
13083;SDS011;6608;48.790;9.198;2023-03-03T04:16:16;115.37;;;66.07;;
13083;SDS011;6608;48.790;9.198;2023-03-03T04:18:42;111.27;;;63.80;;
13083;SDS011;6608;48.790;9.198;2023-03-03T04:21:10;112.17;;;64.77;;
13083;SDS011;6608;48.790;9.198;2023-03-03T04:23:37;115.13;;;65.13;;
13083;SDS011;6608;48.790;9.198;2023-03-03T04:26:04;114.80;;;64.73;;
13083;SDS011;6608;48.790;9.198;2023-03-03T04:28:31;115.93;;;64.53;;
13083;SDS011;6608;48.790;9.198;2023-03-03T04:30:57;112.67;;;64.97;;
13083;SDS011;6608;48.790;9.198;2023-03-03T04:33:24;113.57;;;65.47;;
13083;SDS011;6608;48.790;9.198;2023-03-03T04:35:50;115.90;;;65.07;;
13083;SDS011;6608;48.790;9.198;2023-03-03T04:38:17;119.03;;;67.60;;
13083;SDS011;6608;48.790;9.198;2023-03-03T04:40:43;116.87;;;64.73;;
13083;SDS011;6608;48.790;9.198;2023-03-03T04:43:11;114.97;;;66.77;;
13083;SDS011;6608;48.790;9.198;2023-03-03T04:45:37;121.73;;;68.50;;
13083;SDS011;6608;48.790;9.198;2023-03-03T04:48:04;116.27;;;65.80;;
13083;SDS011;6608;48.790;9.198;2023-03-03T04:50:30;113.37;;;67.10;;
13083;SDS011;6608;48.790;9.198;2023-03-03T04:52:57;116.93;;;66.70;;
13083;SDS011;6608;48.790;9.198;2023-03-03T04:55:23;112.97;;;66.40;;
13083;SDS011;6608;48.790;9.198;2023-03-03T04:57:49;116.57;;;67.37;;
13083;SDS011;6608;48.790;9.198;2023-03-03T05:00:17;120.57;;;66.37;;
13083;SDS011;6608;48.790;9.198;2023-03-03T05:02:46;120.97;;;67.20;;
13083;SDS011;6608;48.790;9.198;2023-03-03T05:05:13;118.17;;;67.67;;
13083;SDS011;6608;48.790;9.198;2023-03-03T05:07:39;113.33;;;65.37;;
13083;SDS011;6608;48.790;9.198;2023-03-03T05:10:06;121.07;;;66.03;;
13083;SDS011;6608;48.790;9.198;2023-03-03T05:12:33;118.77;;;67.37;;
13083;SDS011;6608;48.790;9.198;2023-03-03T05:14:59;122.07;;;67.17;;
13083;SDS011;6608;48.790;9.198;2023-03-03T05:17:27;111.90;;;65.10;;
13083;SDS011;6608;48.790;9.198;2023-03-03T05:19:53;115.03;;;67.67;;
13083;SDS011;6608;48.790;9.198;2023-03-03T05:22:21;117.67;;;67.20;;
13083;SDS011;6608;48.790;9.198;2023-03-03T05:24:47;118.63;;;67.23;;
13083;SDS011;6608;48.790;9.198;2023-03-03T05:27:14;116.00;;;66.67;;
13083;SDS011;6608;48.790;9.198;2023-03-03T05:29:40;116.97;;;67.07;;
13083;SDS011;6608;48.790;9.198;2023-03-03T05:32:06;116.47;;;66.93;;
13083;SDS011;6608;48.790;9.198;2023-03-03T05:34:34;118.90;;;67.27;;
13083;SDS011;6608;48.790;9.198;2023-03-03T05:37:01;123.90;;;66.07;;
13083;SDS011;6608;48.790;9.198;2023-03-03T05:39:30;118.00;;;67.30;;
13083;SDS011;6608;48.790;9.198;2023-03-03T05:41:57;120.23;;;68.03;;
13083;SDS011;6608;48.790;9.198;2023-03-03T05:44:24;118.60;;;67.80;;
13083;SDS011;6608;48.790;9.198;2023-03-03T05:46:50;115.07;;;67.00;;
13083;SDS011;6608;48.790;9.198;2023-03-03T05:49:17;119.67;;;66.60;;
13083;SDS011;6608;48.790;9.198;2023-03-03T05:51:44;118.53;;;66.60;;
13083;SDS011;6608;48.790;9.198;2023-03-03T05:54:11;120.53;;;67.87;;
13083;SDS011;6608;48.790;9.198;2023-03-03T05:56:37;121.57;;;68.00;;
13083;SDS011;6608;48.790;9.198;2023-03-03T05:59:04;121.47;;;68.20;;
13083;SDS011;6608;48.790;9.198;2023-03-03T06:01:30;121.70;;;69.63;;
13083;SDS011;6608;48.790;9.198;2023-03-03T06:03:57;117.90;;;68.27;;
13083;SDS011;6608;48.790;9.198;2023-03-03T06:06:23;117.77;;;67.10;;
13083;SDS011;6608;48.790;9.198;2023-03-03T06:08:51;121.33;;;69.60;;
13083;SDS011;6608;48.790;9.198;2023-03-03T06:11:18;118.87;;;67.13;;
13083;SDS011;6608;48.790;9.198;2023-03-03T06:13:44;121.73;;;68.60;;
13083;SDS011;6608;48.790;9.198;2023-03-03T06:16:10;115.00;;;66.73;;
13083;SDS011;6608;48.790;9.198;2023-03-03T06:18:37;120.67;;;66.33;;
13083;SDS011;6608;48.790;9.198;2023-03-03T06:21:03;109.03;;;62.80;;
13083;SDS011;6608;48.790;9.198;2023-03-03T06:23:30;113.90;;;62.87;;
13083;SDS011;6608;48.790;9.198;2023-03-03T06:25:57;108.17;;;62.73;;
13083;SDS011;6608;48.790;9.198;2023-03-03T06:28:24;108.80;;;63.20;;
13083;SDS011;6608;48.790;9.198;2023-03-03T06:30:51;110.97;;;62.27;;
13083;SDS011;6608;48.790;9.198;2023-03-03T06:33:18;112.40;;;62.70;;
13083;SDS011;6608;48.790;9.198;2023-03-03T06:35:47;112.23;;;62.17;;
13083;SDS011;6608;48.790;9.198;2023-03-03T06:38:14;107.70;;;63.03;;
13083;SDS011;6608;48.790;9.198;2023-03-03T06:40:40;111.77;;;64.17;;
13083;SDS011;6608;48.790;9.198;2023-03-03T06:43:08;112.00;;;63.80;;
13083;SDS011;6608;48.790;9.198;2023-03-03T06:45:34;108.90;;;62.83;;
13083;SDS011;6608;48.790;9.198;2023-03-03T06:48:01;108.07;;;62.87;;
13083;SDS011;6608;48.790;9.198;2023-03-03T06:50:28;114.27;;;63.13;;
13083;SDS011;6608;48.790;9.198;2023-03-03T06:52:58;112.30;;;64.23;;
13083;SDS011;6608;48.790;9.198;2023-03-03T06:55:27;109.37;;;61.73;;
13083;SDS011;6608;48.790;9.198;2023-03-03T06:57:53;111.87;;;62.97;;
13083;SDS011;6608;48.790;9.198;2023-03-03T07:00:22;113.20;;;65.00;;
13083;SDS011;6608;48.790;9.198;2023-03-03T07:02:51;115.57;;;63.43;;
13083;SDS011;6608;48.790;9.198;2023-03-03T07:05:25;107.07;;;61.90;;
13083;SDS011;6608;48.790;9.198;2023-03-03T07:07:54;109.47;;;62.70;;
13083;SDS011;6608;48.790;9.198;2023-03-03T07:10:22;112.47;;;64.17;;
13083;SDS011;6608;48.790;9.198;2023-03-03T07:12:49;111.83;;;61.83;;
13083;SDS011;6608;48.790;9.198;2023-03-03T07:15:16;111.27;;;65.13;;
13083;SDS011;6608;48.790;9.198;2023-03-03T07:17:44;108.33;;;62.40;;
13083;SDS011;6608;48.790;9.198;2023-03-03T07:20:14;113.27;;;63.50;;
13083;SDS011;6608;48.790;9.198;2023-03-03T07:22:42;118.33;;;63.40;;
13083;SDS011;6608;48.790;9.198;2023-03-03T07:25:13;111.50;;;62.87;;
13083;SDS011;6608;48.790;9.198;2023-03-03T07:27:44;109.77;;;62.27;;
13083;SDS011;6608;48.790;9.198;2023-03-03T07:30:20;108.47;;;62.57;;
13083;SDS011;6608;48.790;9.198;2023-03-03T07:32:50;111.43;;;63.57;;
13083;SDS011;6608;48.790;9.198;2023-03-03T07:35:23;112.37;;;63.20;;
13083;SDS011;6608;48.790;9.198;2023-03-03T07:37:53;116.83;;;65.43;;
13083;SDS011;6608;48.790;9.198;2023-03-03T07:40:24;113.50;;;64.60;;
13083;SDS011;6608;48.790;9.198;2023-03-03T07:42:52;112.53;;;62.80;;
13083;SDS011;6608;48.790;9.198;2023-03-03T07:45:21;112.10;;;64.13;;
13083;SDS011;6608;48.790;9.198;2023-03-03T07:47:49;109.83;;;63.57;;
13083;SDS011;6608;48.790;9.198;2023-03-03T07:50:17;110.63;;;63.50;;
13083;SDS011;6608;48.790;9.198;2023-03-03T07:52:45;112.77;;;63.33;;
13083;SDS011;6608;48.790;9.198;2023-03-03T07:55:22;112.60;;;62.47;;
13083;SDS011;6608;48.790;9.198;2023-03-03T07:57:50;108.37;;;62.43;;
13083;SDS011;6608;48.790;9.198;2023-03-03T08:03:04;114.27;;;64.07;;
13083;SDS011;6608;48.790;9.198;2023-03-03T08:05:33;112.37;;;64.77;;
13083;SDS011;6608;48.790;9.198;2023-03-03T08:08:02;111.67;;;62.43;;
13083;SDS011;6608;48.790;9.198;2023-03-03T08:10:36;115.13;;;63.50;;
13083;SDS011;6608;48.790;9.198;2023-03-03T08:13:08;113.87;;;64.03;;
13083;SDS011;6608;48.790;9.198;2023-03-03T08:15:38;116.17;;;64.13;;
13083;SDS011;6608;48.790;9.198;2023-03-03T08:18:12;118.00;;;66.67;;
13083;SDS011;6608;48.790;9.198;2023-03-03T08:20:45;117.97;;;65.13;;
13083;SDS011;6608;48.790;9.198;2023-03-03T08:23:12;115.03;;;63.77;;
13083;SDS011;6608;48.790;9.198;2023-03-03T08:25:39;115.10;;;65.13;;
13083;SDS011;6608;48.790;9.198;2023-03-03T08:28:06;117.87;;;64.63;;
13083;SDS011;6608;48.790;9.198;2023-03-03T08:30:32;126.23;;;68.37;;
13083;SDS011;6608;48.790;9.198;2023-03-03T08:32:59;122.60;;;67.47;;
13083;SDS011;6608;48.790;9.198;2023-03-03T08:35:27;124.73;;;66.10;;
13083;SDS011;6608;48.790;9.198;2023-03-03T08:37:53;120.03;;;64.53;;
13083;SDS011;6608;48.790;9.198;2023-03-03T08:40:20;122.03;;;65.60;;
13083;SDS011;6608;48.790;9.198;2023-03-03T08:42:46;124.20;;;66.77;;
13083;SDS011;6608;48.790;9.198;2023-03-03T08:45:13;123.57;;;66.43;;
13083;SDS011;6608;48.790;9.198;2023-03-03T08:47:39;122.50;;;65.90;;
13083;SDS011;6608;48.790;9.198;2023-03-03T08:50:07;128.40;;;67.43;;
13083;SDS011;6608;48.790;9.198;2023-03-03T08:52:35;123.63;;;67.00;;
13083;SDS011;6608;48.790;9.198;2023-03-03T08:55:02;126.37;;;67.23;;
13083;SDS011;6608;48.790;9.198;2023-03-03T08:57:28;123.97;;;68.03;;
13083;SDS011;6608;48.790;9.198;2023-03-03T08:59:54;118.07;;;65.80;;
13083;SDS011;6608;48.790;9.198;2023-03-03T09:02:21;122.77;;;66.57;;
13083;SDS011;6608;48.790;9.198;2023-03-03T09:04:47;125.57;;;65.67;;
13083;SDS011;6608;48.790;9.198;2023-03-03T09:07:25;121.03;;;66.07;;
13083;SDS011;6608;48.790;9.198;2023-03-03T09:09:53;122.77;;;67.00;;
13083;SDS011;6608;48.790;9.198;2023-03-03T09:12:21;122.50;;;66.83;;
13083;SDS011;6608;48.790;9.198;2023-03-03T09:14:48;118.83;;;65.40;;
13083;SDS011;6608;48.790;9.198;2023-03-03T09:17:18;122.80;;;67.47;;
13083;SDS011;6608;48.790;9.198;2023-03-03T09:19:47;120.13;;;64.87;;
13083;SDS011;6608;48.790;9.198;2023-03-03T09:22:22;117.57;;;65.57;;
13083;SDS011;6608;48.790;9.198;2023-03-03T09:24:50;122.13;;;66.43;;
13083;SDS011;6608;48.790;9.198;2023-03-03T09:27:21;120.60;;;65.90;;
13083;SDS011;6608;48.790;9.198;2023-03-03T09:29:50;121.53;;;66.87;;
13083;SDS011;6608;48.790;9.198;2023-03-03T09:32:21;123.93;;;67.67;;
13083;SDS011;6608;48.790;9.198;2023-03-03T09:34:49;119.87;;;66.87;;
13083;SDS011;6608;48.790;9.198;2023-03-03T09:37:17;122.20;;;67.33;;
13083;SDS011;6608;48.790;9.198;2023-03-03T09:39:46;120.27;;;66.47;;
13083;SDS011;6608;48.790;9.198;2023-03-03T09:42:32;124.77;;;67.63;;
13083;SDS011;6608;48.790;9.198;2023-03-03T09:45:12;123.43;;;66.57;;
13083;SDS011;6608;48.790;9.198;2023-03-03T09:47:45;125.20;;;67.03;;
13083;SDS011;6608;48.790;9.198;2023-03-03T09:50:17;125.03;;;67.70;;
13083;SDS011;6608;48.790;9.198;2023-03-03T09:52:46;125.87;;;67.70;;
13083;SDS011;6608;48.790;9.198;2023-03-03T09:55:25;126.70;;;68.07;;
13083;SDS011;6608;48.790;9.198;2023-03-03T09:58:08;127.27;;;68.80;;
13083;SDS011;6608;48.790;9.198;2023-03-03T10:00:40;127.17;;;68.27;;
13083;SDS011;6608;48.790;9.198;2023-03-03T10:05:54;130.03;;;67.13;;
13083;SDS011;6608;48.790;9.198;2023-03-03T10:08:28;129.93;;;68.07;;
13083;SDS011;6608;48.790;9.198;2023-03-03T10:11:01;127.13;;;67.33;;
13083;SDS011;6608;48.790;9.198;2023-03-03T10:13:37;132.63;;;69.40;;
13083;SDS011;6608;48.790;9.198;2023-03-03T10:16:16;129.17;;;70.67;;
13083;SDS011;6608;48.790;9.198;2023-03-03T10:18:48;128.80;;;67.17;;
13083;SDS011;6608;48.790;9.198;2023-03-03T10:21:18;129.10;;;68.83;;
13083;SDS011;6608;48.790;9.198;2023-03-03T10:23:51;130.87;;;69.27;;
13083;SDS011;6608;48.790;9.198;2023-03-03T10:26:20;128.83;;;68.40;;
13083;SDS011;6608;48.790;9.198;2023-03-03T10:31:38;131.17;;;67.97;;
13083;SDS011;6608;48.790;9.198;2023-03-03T10:34:11;132.10;;;69.57;;
13083;SDS011;6608;48.790;9.198;2023-03-03T10:36:45;130.43;;;70.70;;
13083;SDS011;6608;48.790;9.198;2023-03-03T10:39:18;128.70;;;69.07;;
13083;SDS011;6608;48.790;9.198;2023-03-03T10:41:52;132.53;;;71.83;;
13083;SDS011;6608;48.790;9.198;2023-03-03T10:44:34;129.80;;;68.10;;
13083;SDS011;6608;48.790;9.198;2023-03-03T10:47:09;128.83;;;68.93;;
13083;SDS011;6608;48.790;9.198;2023-03-03T10:49:44;139.07;;;70.20;;
13083;SDS011;6608;48.790;9.198;2023-03-03T10:55:17;132.77;;;70.70;;
13083;SDS011;6608;48.790;9.198;2023-03-03T10:57:49;127.47;;;67.90;;
13083;SDS011;6608;48.790;9.198;2023-03-03T11:00:20;135.20;;;72.07;;
13083;SDS011;6608;48.790;9.198;2023-03-03T11:02:55;137.57;;;73.83;;
13083;SDS011;6608;48.790;9.198;2023-03-03T11:05:31;135.97;;;71.67;;
13083;SDS011;6608;48.790;9.198;2023-03-03T11:08:03;143.67;;;73.20;;
13083;SDS011;6608;48.790;9.198;2023-03-03T11:10:36;136.20;;;71.63;;
13083;SDS011;6608;48.790;9.198;2023-03-03T11:13:07;141.53;;;73.23;;
13083;SDS011;6608;48.790;9.198;2023-03-03T11:15:43;135.87;;;72.20;;
13083;SDS011;6608;48.790;9.198;2023-03-03T11:18:22;138.23;;;71.40;;
13083;SDS011;6608;48.790;9.198;2023-03-03T11:20:51;135.97;;;71.60;;
13083;SDS011;6608;48.790;9.198;2023-03-03T11:23:27;137.40;;;71.50;;
13083;SDS011;6608;48.790;9.198;2023-03-03T11:26:05;134.30;;;71.17;;
13083;SDS011;6608;48.790;9.198;2023-03-03T11:28:37;134.87;;;72.03;;
13083;SDS011;6608;48.790;9.198;2023-03-03T11:31:09;137.43;;;72.10;;
13083;SDS011;6608;48.790;9.198;2023-03-03T11:33:42;136.10;;;73.33;;
13083;SDS011;6608;48.790;9.198;2023-03-03T11:36:11;135.47;;;72.00;;
13083;SDS011;6608;48.790;9.198;2023-03-03T11:38:46;137.43;;;74.27;;
13083;SDS011;6608;48.790;9.198;2023-03-03T11:41:16;133.67;;;70.50;;
13083;SDS011;6608;48.790;9.198;2023-03-03T11:43:52;135.53;;;71.97;;
13083;SDS011;6608;48.790;9.198;2023-03-03T11:46:21;133.67;;;72.23;;
13083;SDS011;6608;48.790;9.198;2023-03-03T11:48:51;131.27;;;70.90;;
13083;SDS011;6608;48.790;9.198;2023-03-03T11:51:30;131.90;;;70.80;;
13083;SDS011;6608;48.790;9.198;2023-03-03T11:53:58;136.70;;;70.97;;
13083;SDS011;6608;48.790;9.198;2023-03-03T11:56:27;132.93;;;71.47;;
13083;SDS011;6608;48.790;9.198;2023-03-03T11:59:01;133.87;;;72.03;;
13083;SDS011;6608;48.790;9.198;2023-03-03T12:01:29;135.20;;;70.87;;
13083;SDS011;6608;48.790;9.198;2023-03-03T12:04:00;134.63;;;70.83;;
13083;SDS011;6608;48.790;9.198;2023-03-03T12:06:30;128.77;;;69.27;;
13083;SDS011;6608;48.790;9.198;2023-03-03T12:09:08;132.17;;;71.20;;
13083;SDS011;6608;48.790;9.198;2023-03-03T12:11:38;136.33;;;73.17;;
13083;SDS011;6608;48.790;9.198;2023-03-03T12:14:11;134.80;;;71.43;;
13083;SDS011;6608;48.790;9.198;2023-03-03T12:16:45;141.43;;;73.03;;
13083;SDS011;6608;48.790;9.198;2023-03-03T12:19:17;140.60;;;72.47;;
13083;SDS011;6608;48.790;9.198;2023-03-03T12:21:52;137.97;;;72.23;;
13083;SDS011;6608;48.790;9.198;2023-03-03T12:24:26;143.20;;;75.10;;
13083;SDS011;6608;48.790;9.198;2023-03-03T12:26:58;149.33;;;78.97;;
13083;SDS011;6608;48.790;9.198;2023-03-03T12:29:30;138.53;;;72.07;;
13083;SDS011;6608;48.790;9.198;2023-03-03T12:32:02;142.13;;;72.47;;
13083;SDS011;6608;48.790;9.198;2023-03-03T12:34:34;135.30;;;70.60;;
13083;SDS011;6608;48.790;9.198;2023-03-03T12:37:05;139.30;;;72.57;;
13083;SDS011;6608;48.790;9.198;2023-03-03T12:39:37;145.70;;;73.83;;
13083;SDS011;6608;48.790;9.198;2023-03-03T12:42:09;136.77;;;70.67;;
13083;SDS011;6608;48.790;9.198;2023-03-03T12:44:37;134.70;;;70.03;;
13083;SDS011;6608;48.790;9.198;2023-03-03T12:47:08;141.77;;;70.97;;
13083;SDS011;6608;48.790;9.198;2023-03-03T12:49:38;139.47;;;70.80;;
13083;SDS011;6608;48.790;9.198;2023-03-03T12:52:11;140.37;;;71.07;;
13083;SDS011;6608;48.790;9.198;2023-03-03T12:54:47;138.60;;;70.03;;
13083;SDS011;6608;48.790;9.198;2023-03-03T12:57:18;144.07;;;72.70;;
13083;SDS011;6608;48.790;9.198;2023-03-03T12:59:49;142.30;;;73.83;;
13083;SDS011;6608;48.790;9.198;2023-03-03T13:02:28;144.20;;;73.23;;
13083;SDS011;6608;48.790;9.198;2023-03-03T13:05:01;138.83;;;71.87;;
13083;SDS011;6608;48.790;9.198;2023-03-03T13:07:32;141.00;;;72.63;;
13083;SDS011;6608;48.790;9.198;2023-03-03T13:10:07;138.70;;;72.03;;
13083;SDS011;6608;48.790;9.198;2023-03-03T13:12:38;144.40;;;73.17;;
13083;SDS011;6608;48.790;9.198;2023-03-03T13:15:10;141.07;;;72.37;;
13083;SDS011;6608;48.790;9.198;2023-03-03T13:17:37;142.17;;;73.20;;
13083;SDS011;6608;48.790;9.198;2023-03-03T13:20:11;142.67;;;72.30;;
13083;SDS011;6608;48.790;9.198;2023-03-03T13:22:43;146.13;;;73.70;;
13083;SDS011;6608;48.790;9.198;2023-03-03T13:25:23;143.27;;;73.33;;
13083;SDS011;6608;48.790;9.198;2023-03-03T13:27:57;144.40;;;72.10;;
13083;SDS011;6608;48.790;9.198;2023-03-03T13:30:26;140.13;;;71.40;;
13083;SDS011;6608;48.790;9.198;2023-03-03T13:32:56;139.87;;;72.27;;
13083;SDS011;6608;48.790;9.198;2023-03-03T13:35:31;139.00;;;72.60;;
13083;SDS011;6608;48.790;9.198;2023-03-03T13:37:58;137.13;;;69.43;;
13083;SDS011;6608;48.790;9.198;2023-03-03T13:40:25;137.73;;;71.80;;
13083;SDS011;6608;48.790;9.198;2023-03-03T13:42:52;136.43;;;70.53;;
13083;SDS011;6608;48.790;9.198;2023-03-03T13:45:22;139.23;;;70.13;;
13083;SDS011;6608;48.790;9.198;2023-03-03T13:47:52;140.23;;;71.43;;
13083;SDS011;6608;48.790;9.198;2023-03-03T13:50:21;139.37;;;71.77;;
13083;SDS011;6608;48.790;9.198;2023-03-03T13:53:08;137.20;;;71.23;;
13083;SDS011;6608;48.790;9.198;2023-03-03T13:55:41;137.23;;;71.30;;
13083;SDS011;6608;48.790;9.198;2023-03-03T13:58:10;136.80;;;71.83;;
13083;SDS011;6608;48.790;9.198;2023-03-03T14:00:47;138.13;;;72.47;;
13083;SDS011;6608;48.790;9.198;2023-03-03T14:03:20;137.83;;;72.07;;
13083;SDS011;6608;48.790;9.198;2023-03-03T14:05:51;145.77;;;73.67;;
13083;SDS011;6608;48.790;9.198;2023-03-03T14:08:22;137.97;;;71.80;;
13083;SDS011;6608;48.790;9.198;2023-03-03T14:10:53;140.53;;;71.30;;
13083;SDS011;6608;48.790;9.198;2023-03-03T14:13:24;139.67;;;72.20;;
13083;SDS011;6608;48.790;9.198;2023-03-03T14:15:53;137.03;;;71.87;;
13083;SDS011;6608;48.790;9.198;2023-03-03T14:18:23;137.37;;;71.33;;
13083;SDS011;6608;48.790;9.198;2023-03-03T14:20:51;139.87;;;72.40;;
13083;SDS011;6608;48.790;9.198;2023-03-03T14:23:18;139.10;;;71.37;;
13083;SDS011;6608;48.790;9.198;2023-03-03T14:25:52;134.27;;;70.90;;
13083;SDS011;6608;48.790;9.198;2023-03-03T14:28:19;138.37;;;72.13;;
13083;SDS011;6608;48.790;9.198;2023-03-03T14:30:46;136.90;;;72.00;;
13083;SDS011;6608;48.790;9.198;2023-03-03T14:33:15;147.63;;;78.17;;
13083;SDS011;6608;48.790;9.198;2023-03-03T14:35:43;140.10;;;71.43;;
13083;SDS011;6608;48.790;9.198;2023-03-03T14:38:14;137.80;;;71.87;;
13083;SDS011;6608;48.790;9.198;2023-03-03T14:40:42;137.77;;;73.47;;
13083;SDS011;6608;48.790;9.198;2023-03-03T14:43:19;137.70;;;71.30;;
13083;SDS011;6608;48.790;9.198;2023-03-03T14:45:47;146.33;;;74.93;;
13083;SDS011;6608;48.790;9.198;2023-03-03T14:48:14;137.57;;;71.80;;
13083;SDS011;6608;48.790;9.198;2023-03-03T14:50:42;139.37;;;71.80;;